Time;durP1;ratioP1;P1;durP2;ratioP2;P2;SDS_P1;SDS_P2;PMS_P1;PMS_P2;Temp;Humidity;BMP_temperature;BMP_pressure;BME280_temperature;BME280_humidity;BME280_pressure;Samples;Min_cycle;Max_cycle;Signal;HPM_P1;HPM_P2
2022/11/22 00:02:16;;;;;;;10.67;3.67;;;7.70;99.90;;;;;;5014801;28;20022;-79
2022/11/22 00:04:42;;;;;;;11.50;4.20;;;7.70;99.90;;;;;;4998724;28;20030;-80
2022/11/22 00:07:07;;;;;;;10.13;3.83;;;7.70;99.90;;;;;;4998602;28;20489;-79
2022/11/22 00:09:33;;;;;;;11.30;3.17;;;7.70;99.90;;;;;;4998710;28;20022;-78
2022/11/22 00:11:59;;;;;;;17.17;3.90;;;7.70;99.90;;;;;;4998877;28;20064;-79
2022/11/22 00:14:24;;;;;;;12.30;3.77;;;7.70;99.90;;;;;;4997943;28;20045;-79
2022/11/22 00:16:50;;;;;;;12.97;4.23;;;7.80;99.90;;;;;;4998375;28;20034;-80
2022/11/22 00:19:16;;;;;;;13.43;3.80;;;7.70;99.90;;;;;;4998631;28;20379;-79
2022/11/22 00:21:42;;;;;;;10.00;3.40;;;7.70;99.90;;;;;;5015884;28;20022;-81
2022/11/22 00:24:08;;;;;;;15.83;4.37;;;7.70;99.90;;;;;;5014559;28;20048;-79
2022/11/22 00:26:33;;;;;;;10.60;3.30;;;7.70;99.90;;;;;;4998199;28;20474;-79
2022/11/22 00:28:59;;;;;;;14.63;3.97;;;7.70;99.90;;;;;;4998236;28;20033;-79
2022/11/22 00:31:25;;;;;;;10.53;3.37;;;7.70;99.90;;;;;;4998070;28;20033;-79
2022/11/22 00:33:50;;;;;;;11.33;4.30;;;7.80;99.90;;;;;;4998145;28;20022;-79
2022/11/22 00:36:16;;;;;;;14.10;4.80;;;7.80;99.90;;;;;;5014348;28;20038;-79
2022/11/22 00:38:42;;;;;;;12.33;4.50;;;7.70;99.90;;;;;;5014322;28;20087;-79
2022/11/22 00:41:08;;;;;;;14.17;3.90;;;7.70;99.90;;;;;;4997388;28;20137;-79
2022/11/22 00:43:34;;;;;;;10.50;4.37;;;7.80;99.90;;;;;;4996875;28;20125;-79
2022/11/22 00:46:00;;;;;;;13.70;5.40;;;7.80;99.90;;;;;;4998217;28;20030;-78
2022/11/22 00:48:26;;;;;;;12.50;4.27;;;7.80;99.90;;;;;;5013987;28;20017;-79
2022/11/22 00:50:51;;;;;;;15.20;4.63;;;7.80;99.90;;;;;;4997603;28;20117;-78
2022/11/22 00:53:17;;;;;;;10.73;4.20;;;7.80;99.90;;;;;;4997925;28;20030;-78
2022/11/22 00:55:47;;;;;;;11.90;4.47;;;7.80;99.90;;;;;;5014276;28;20056;-78
2022/11/22 00:58:12;;;;;;;10.03;3.87;;;7.80;99.90;;;;;;5013700;28;20030;-79
2022/11/22 01:00:38;;;;;;;12.83;4.83;;;7.80;99.90;;;;;;5014205;28;20022;-78
2022/11/22 01:03:03;;;;;;;15.57;4.80;;;7.80;99.90;;;;;;4998581;28;20033;-78
2022/11/22 01:05:29;;;;;;;10.97;4.20;;;7.80;99.90;;;;;;4963839;28;20112;-79
2022/11/22 01:07:55;;;;;;;9.47;3.87;;;7.80;99.90;;;;;;4979836;28;20109;-79
2022/11/22 01:10:21;;;;;;;11.67;4.07;;;7.80;99.90;;;;;;4979594;28;20698;-79
2022/11/22 01:12:47;;;;;;;10.43;3.93;;;7.80;99.90;;;;;;4997013;28;20026;-80
2022/11/22 01:15:13;;;;;;;13.20;5.40;;;7.80;99.90;;;;;;5013296;28;20058;-79
2022/11/22 01:17:38;;;;;;;9.77;4.27;;;7.80;99.90;;;;;;4980299;28;20045;-78
2022/11/22 01:20:05;;;;;;;8.10;3.70;;;7.80;99.90;;;;;;5015074;28;20116;-78
2022/11/22 01:22:30;;;;;;;7.70;3.80;;;7.80;99.90;;;;;;4996980;28;20069;-79
2022/11/22 01:24:56;;;;;;;9.47;4.20;;;7.80;99.90;;;;;;5013438;28;20405;-79
2022/11/22 01:27:22;;;;;;;11.70;4.03;;;7.70;99.90;;;;;;5013510;28;20034;-79
2022/11/22 01:29:48;;;;;;;14.00;5.20;;;7.80;99.90;;;;;;4981105;28;20026;-79
2022/11/22 01:32:13;;;;;;;15.50;4.87;;;7.80;99.90;;;;;;4964698;28;20037;-78
2022/11/22 01:34:39;;;;;;;10.60;4.20;;;7.80;99.90;;;;;;5014571;28;20034;-81
2022/11/22 01:37:05;;;;;;;15.53;5.30;;;7.70;99.90;;;;;;4997554;28;20367;-78
2022/11/22 01:39:30;;;;;;;10.83;4.80;;;7.70;99.90;;;;;;4996990;28;20029;-78
2022/11/22 01:41:56;;;;;;;13.30;5.27;;;7.70;99.90;;;;;;4997029;28;20025;-78
2022/11/22 01:44:26;;;;;;;14.17;4.40;;;7.70;99.90;;;;;;4964360;28;20033;-77
2022/11/22 01:46:53;;;;;;;10.30;4.33;;;7.70;99.90;;;;;;4996898;28;20025;-79
2022/11/22 01:49:43;;;;;;;12.80;4.67;;;7.60;99.90;;;;;;4996827;28;20022;-78
2022/11/22 01:52:16;;;;;;;13.47;4.53;;;7.60;99.90;;;;;;5014071;28;20022;-79
2022/11/22 01:54:46;;;;;;;7.60;3.43;;;7.60;99.90;;;;;;4996468;28;20038;-79
2022/11/22 01:57:17;;;;;;;11.60;4.03;;;7.60;99.90;;;;;;5014462;28;20028;-78
2022/11/22 01:59:50;;;;;;;12.70;4.47;;;7.50;99.90;;;;;;5014171;28;20496;-78
2022/11/22 02:02:15;;;;;;;11.17;4.17;;;7.50;99.90;;;;;;4996445;28;20129;-79
2022/11/22 02:04:42;;;;;;;9.43;3.87;;;7.50;99.90;;;;;;5014200;28;20079;-79
2022/11/22 02:07:17;;;;;;;11.90;4.30;;;7.50;99.90;;;;;;4980214;28;20017;-79
2022/11/22 02:09:46;;;;;;;17.57;5.30;;;7.50;99.90;;;;;;4996141;28;20128;-79
2022/11/22 02:12:14;;;;;;;13.87;4.57;;;7.40;99.90;;;;;;4996220;28;20025;-79
2022/11/22 02:14:40;;;;;;;10.10;4.53;;;7.40;99.90;;;;;;4979889;28;20088;-79
2022/11/22 02:17:06;;;;;;;12.60;4.13;;;7.40;99.90;;;;;;4980010;28;20029;-78
2022/11/22 02:19:44;;;;;;;12.37;4.00;;;7.40;99.90;;;;;;4996342;28;20128;-79
2022/11/22 02:22:33;;;;;;;10.07;4.30;;;7.40;99.90;;;;;;5014115;28;20113;-79
2022/11/22 02:25:21;;;;;;;10.93;4.10;;;7.50;99.90;;;;;;4996010;28;20029;-79
2022/11/22 02:27:48;;;;;;;12.57;4.13;;;7.40;99.90;;;;;;4996098;28;20044;-78
2022/11/22 02:30:14;;;;;;;10.50;4.70;;;7.40;99.90;;;;;;5014030;28;20037;-78
2022/11/22 02:32:39;;;;;;;13.03;3.53;;;7.40;99.90;;;;;;4963550;28;20034;-78
2022/11/22 02:35:20;;;;;;;11.00;4.30;;;7.40;99.90;;;;;;4996047;28;20486;-78
2022/11/22 02:37:50;;;;;;;13.07;4.23;;;7.40;99.90;;;;;;4996157;28;20088;-78
2022/11/22 02:40:16;;;;;;;18.43;4.27;;;7.40;99.90;;;;;;5013711;28;20021;-78
2022/11/22 02:42:48;;;;;;;19.77;4.43;;;7.40;99.90;;;;;;4996190;28;20051;-78
2022/11/22 02:45:14;;;;;;;13.47;4.00;;;7.40;99.90;;;;;;4996082;28;20103;-78
2022/11/22 02:47:39;;;;;;;11.43;3.70;;;7.40;99.90;;;;;;4996603;28;20470;-79
2022/11/22 02:50:06;;;;;;;15.03;3.60;;;7.40;99.90;;;;;;4980117;28;20124;-79
2022/11/22 02:52:31;;;;;;;20.70;4.67;;;7.40;99.90;;;;;;4997473;28;20026;-79
2022/11/22 02:54:57;;;;;;;20.60;4.37;;;7.40;99.90;;;;;;4997968;28;20042;-79
2022/11/22 02:57:23;;;;;;;14.70;3.40;;;7.40;99.90;;;;;;4980743;28;20026;-79
2022/11/22 02:59:48;;;;;;;11.63;3.03;;;7.30;99.90;;;;;;4979668;28;20113;-79
2022/11/22 03:02:14;;;;;;;13.00;3.23;;;7.30;99.90;;;;;;4979902;28;20425;-79
2022/11/22 03:04:39;;;;;;;11.53;3.70;;;7.30;99.90;;;;;;4963415;28;20029;-80
2022/11/22 03:07:05;;;;;;;16.97;3.53;;;7.30;99.90;;;;;;5013053;28;20068;-80
2022/11/22 03:09:31;;;;;;;11.03;2.70;;;7.30;99.90;;;;;;4983678;28;20036;-80
2022/11/22 03:11:57;;;;;;;13.57;3.27;;;7.30;99.90;;;;;;4983214;28;20107;-80
2022/11/22 03:14:23;;;;;;;11.90;2.97;;;7.30;99.90;;;;;;4982994;28;20050;-79
2022/11/22 03:16:49;;;;;;;22.67;3.13;;;7.20;99.90;;;;;;4999532;28;20033;-79
2022/11/22 03:19:15;;;;;;;12.17;3.07;;;7.20;99.90;;;;;;4983248;28;20121;-79
2022/11/22 03:21:42;;;;;;;18.90;2.93;;;7.20;99.90;;;;;;4983040;28;20088;-79
2022/11/22 03:24:08;;;;;;;12.83;3.23;;;7.20;99.90;;;;;;5017297;28;20076;-79
2022/11/22 03:26:34;;;;;;;10.77;2.17;;;7.20;99.90;;;;;;4999519;28;20030;-79
2022/11/22 03:29:00;;;;;;;18.83;3.20;;;7.10;99.90;;;;;;4998993;28;20026;-80
2022/11/22 03:31:26;;;;;;;14.90;2.63;;;7.10;99.90;;;;;;4982954;28;20053;-79
2022/11/22 03:33:52;;;;;;;9.93;2.50;;;7.10;99.90;;;;;;4983120;28;20334;-78
2022/11/22 03:36:18;;;;;;;9.93;2.50;;;7.10;99.90;;;;;;4966772;28;20034;-79
2022/11/22 03:38:44;;;;;;;17.40;3.03;;;7.10;99.90;;;;;;4999017;28;20030;-79
2022/11/22 03:41:09;;;;;;;16.33;2.37;;;7.10;99.90;;;;;;4983083;28;20080;-81
2022/11/22 03:43:35;;;;;;;9.27;2.40;;;7.00;99.90;;;;;;4998614;28;20386;-79
2022/11/22 03:46:01;;;;;;;14.63;2.77;;;7.00;99.90;;;;;;4966903;28;20026;-78
2022/11/22 03:48:26;;;;;;;17.33;2.80;;;7.00;99.90;;;;;;4982621;28;20025;-78
2022/11/22 03:50:52;;;;;;;11.50;2.23;;;7.00;99.90;;;;;;4966365;28;20030;-78
2022/11/22 03:53:18;;;;;;;19.27;2.70;;;7.00;99.90;;;;;;5015142;28;20037;-78
2022/11/22 03:55:43;;;;;;;11.33;2.30;;;6.90;99.90;;;;;;5015238;28;20042;-78
2022/11/22 03:58:09;;;;;;;10.87;2.33;;;6.90;99.90;;;;;;4999127;28;20053;-80
2022/11/22 04:00:35;;;;;;;14.50;2.37;;;6.90;99.90;;;;;;4982112;28;20049;-78
2022/11/22 04:03:01;;;;;;;17.90;2.30;;;6.90;99.90;;;;;;4982855;28;20030;-80
2022/11/22 04:05:26;;;;;;;14.43;2.77;;;6.90;99.90;;;;;;4981776;28;20488;-80
2022/11/22 04:08:01;;;;;;;14.80;2.47;;;6.80;99.90;;;;;;4966560;28;20033;-80
2022/11/22 04:10:26;;;;;;;10.27;2.30;;;6.80;99.90;;;;;;4983388;28;20034;-80
2022/11/22 04:12:57;;;;;;;21.27;3.00;;;6.80;99.90;;;;;;5016241;28;20025;-80
2022/11/22 04:15:22;;;;;;;14.77;2.53;;;6.80;99.90;;;;;;4998408;28;20050;-80
2022/11/22 04:17:48;;;;;;;12.00;2.00;;;6.80;99.90;;;;;;4997960;28;20029;-80
2022/11/22 04:23:07;;;;;;;12.10;3.00;;;6.70;99.90;;;;;;5015833;28;20137;-80
2022/11/22 04:25:35;;;;;;;18.70;2.40;;;6.70;99.90;;;;;;5015891;28;20454;-79
2022/11/22 04:28:01;;;;;;;16.03;2.67;;;6.60;99.90;;;;;;4997729;28;20115;-80
2022/11/22 04:33:13;;;;;;;16.23;3.00;;;6.60;99.90;;;;;;5016126;28;20089;-80
2022/11/22 04:35:39;;;;;;;13.33;2.17;;;6.60;99.90;;;;;;4966078;28;20513;-80
2022/11/22 04:38:05;;;;;;;12.13;1.87;;;6.60;99.90;;;;;;4998377;28;20053;-80
2022/11/22 04:40:32;;;;;;;15.10;2.10;;;6.50;99.90;;;;;;5014401;28;20030;-80
2022/11/22 04:45:42;;;;;;;13.55;2.17;;;6.50;99.90;;;;;;5015862;28;20029;-80
2022/11/22 04:48:09;;;;;;;13.97;2.10;;;6.60;99.90;;;;;;4998188;28;20034;-80
2022/11/22 04:53:19;;;;;;;10.82;2.13;;;6.40;99.90;;;;;;5015458;28;20045;-80
2022/11/22 04:55:46;;;;;;;16.40;2.53;;;6.40;99.90;;;;;;4997906;28;20034;-80
2022/11/22 04:58:12;;;;;;;16.07;2.13;;;6.40;99.90;;;;;;4981495;28;20121;-80
2022/11/22 05:00:38;;;;;;;13.73;1.97;;;6.40;99.90;;;;;;5014375;28;20066;-80
2022/11/22 05:03:04;;;;;;;10.90;1.70;;;6.30;99.90;;;;;;4981726;28;20041;-80
2022/11/22 05:05:30;;;;;;;14.23;2.00;;;6.30;99.90;;;;;;4965044;28;20218;-81
2022/11/22 05:07:57;;;;;;;12.50;2.53;;;6.30;99.90;;;;;;4997268;28;20049;-80
2022/11/22 05:10:23;;;;;;;10.27;2.13;;;6.30;99.90;;;;;;5015287;28;20030;-80
2022/11/22 05:12:49;;;;;;;14.17;2.00;;;6.30;99.90;;;;;;4980881;28;20030;-80
2022/11/22 05:15:14;;;;;;;13.53;2.30;;;6.20;99.90;;;;;;4980666;28;20053;-80
2022/11/22 05:17:40;;;;;;;16.57;2.27;;;6.20;99.90;;;;;;5014935;28;20404;-80
2022/11/22 05:20:06;;;;;;;10.73;2.27;;;6.20;99.90;;;;;;5011276;28;20030;-79
2022/11/22 05:25:17;;;;;;;13.40;2.47;;;6.10;99.90;;;;;;4999623;28;20393;-79
2022/11/22 05:27:43;;;;;;;13.50;2.50;;;6.10;99.90;;;;;;4981358;28;20022;-79
2022/11/22 05:30:09;;;;;;;11.87;2.07;;;6.10;99.90;;;;;;5014141;28;20026;-80
2022/11/22 05:32:35;;;;;;;9.00;1.80;;;6.10;99.90;;;;;;4995670;28;20478;-79
2022/11/22 05:35:01;;;;;;;14.00;1.80;;;6.10;99.90;;;;;;5016145;28;20037;-79
2022/11/22 05:37:27;;;;;;;18.77;1.97;;;6.00;99.90;;;;;;4990709;28;20040;-79
2022/11/22 05:39:52;;;;;;;8.77;1.50;;;6.00;99.90;;;;;;5013637;28;20113;-79
2022/11/22 05:42:18;;;;;;;15.17;1.90;;;6.00;99.90;;;;;;4990578;28;20046;-79
2022/11/22 05:44:44;;;;;;;10.97;1.77;;;6.00;99.90;;;;;;4980424;28;20133;-77
2022/11/22 05:47:10;;;;;;;8.60;1.57;;;6.00;99.90;;;;;;4995195;28;20061;-80
2022/11/22 05:49:35;;;;;;;16.97;1.83;;;6.00;99.90;;;;;;5026283;28;20401;-80
2022/11/22 05:52:02;;;;;;;13.73;2.30;;;5.90;99.90;;;;;;4998733;28;20129;-79
2022/11/22 05:54:28;;;;;;;10.63;1.83;;;5.90;99.90;;;;;;5014722;28;20061;-79
2022/11/22 05:56:54;;;;;;;15.53;2.10;;;5.90;99.90;;;;;;5015995;28;20064;-77
2022/11/22 05:59:19;;;;;;;12.73;1.93;;;5.90;99.90;;;;;;5016935;28;20434;-79
2022/11/22 06:01:45;;;;;;;10.37;2.10;;;5.90;99.90;;;;;;4999867;28;20057;-80
2022/11/22 06:04:11;;;;;;;7.90;1.53;;;5.90;99.90;;;;;;5015412;28;20084;-79
2022/11/22 06:06:36;;;;;;;11.87;1.83;;;5.80;99.90;;;;;;5016046;28;20461;-79
2022/11/22 06:09:02;;;;;;;15.70;1.80;;;5.80;99.90;;;;;;5016079;28;20053;-78
2022/11/22 06:11:28;;;;;;;10.40;1.43;;;5.80;99.90;;;;;;4999862;28;20469;-78
2022/11/22 06:13:59;;;;;;;9.13;1.83;;;5.80;99.90;;;;;;5033912;28;20513;-80
2022/11/22 06:16:26;;;;;;;9.73;1.60;;;5.80;99.90;;;;;;5015965;28;20095;-78
2022/11/22 06:18:55;;;;;;;12.97;1.70;;;5.70;99.90;;;;;;5019101;28;20458;-79
2022/11/22 06:21:24;;;;;;;7.13;1.37;;;5.70;99.90;;;;;;4999399;28;20497;-79
2022/11/22 06:23:52;;;;;;;17.63;3.83;;;5.70;99.90;;;;;;5015827;28;20444;-79
2022/11/22 06:26:18;;;;;;;11.03;2.30;;;5.80;99.90;;;;;;5033292;28;20021;-79
2022/11/22 06:28:45;;;;;;;8.07;1.87;;;5.70;99.90;;;;;;4983078;28;20029;-79
2022/11/22 06:31:13;;;;;;;14.23;2.10;;;5.60;99.90;;;;;;5015784;28;20473;-78
2022/11/22 06:33:40;;;;;;;11.63;2.00;;;5.60;99.90;;;;;;5015801;28;20531;-77
2022/11/22 06:36:14;;;;;;;8.17;1.23;;;5.70;99.90;;;;;;5015501;28;20064;-78
2022/11/22 06:38:41;;;;;;;10.90;1.73;;;5.60;99.90;;;;;;5033220;28;20030;-79
2022/11/22 06:41:09;;;;;;;12.27;1.90;;;5.60;99.90;;;;;;4998757;28;20469;-81
2022/11/22 06:43:36;;;;;;;10.03;1.30;;;5.60;99.90;;;;;;5015040;28;20029;-80
2022/11/22 06:46:03;;;;;;;11.60;1.53;;;5.60;99.90;;;;;;5015636;28;20018;-80
2022/11/22 06:48:30;;;;;;;21.40;2.17;;;5.50;99.90;;;;;;5015390;28;20025;-78
2022/11/22 06:51:00;;;;;;;10.90;1.27;;;5.50;99.90;;;;;;5015448;28;20427;-79
2022/11/22 06:53:30;;;;;;;10.50;1.37;;;5.50;99.90;;;;;;5016073;28;20030;-78
2022/11/22 06:56:05;;;;;;;11.13;2.47;;;5.50;99.90;;;;;;5003760;28;20037;-79
2022/11/22 06:58:30;;;;;;;12.90;2.27;;;5.50;99.90;;;;;;5030277;28;20033;-80
2022/11/22 07:01:04;;;;;;;12.40;1.33;;;5.50;99.90;;;;;;4997174;28;20025;-80
2022/11/22 07:03:31;;;;;;;12.47;2.07;;;5.50;99.90;;;;;;5020593;28;20025;-80
2022/11/22 07:05:56;;;;;;;6.97;1.20;;;5.50;99.90;;;;;;4994396;28;20276;-80
2022/11/22 07:08:23;;;;;;;11.33;1.60;;;5.40;99.90;;;;;;4977836;28;20033;-80
2022/11/22 07:10:48;;;;;;;7.20;1.73;;;5.40;99.90;;;;;;4989085;28;20064;-81
2022/11/22 07:13:14;;;;;;;14.23;2.03;;;5.40;99.90;;;;;;5032830;28;20057;-79
2022/11/22 07:15:40;;;;;;;8.13;1.80;;;5.40;99.90;;;;;;4981241;28;20541;-80
2022/11/22 07:18:06;;;;;;;21.00;2.87;;;5.40;99.90;;;;;;5014275;28;20025;-80
2022/11/22 07:20:31;;;;;;;16.00;2.77;;;5.40;99.90;;;;;;5031012;28;20045;-79
2022/11/22 07:22:57;;;;;;;12.20;2.17;;;5.40;99.90;;;;;;4983028;28;20029;-79
2022/11/22 07:25:23;;;;;;;9.67;1.50;;;5.40;99.90;;;;;;5032543;28;20104;-80
2022/11/22 07:27:51;;;;;;;11.73;3.00;;;5.40;99.90;;;;;;5032938;28;20448;-79
2022/11/22 07:30:17;;;;;;;12.70;2.53;;;5.50;99.90;;;;;;5032178;28;20374;-79
2022/11/22 07:32:46;;;;;;;11.17;2.10;;;5.50;99.90;;;;;;5014887;28;20044;-79
2022/11/22 07:35:12;;;;;;;16.07;1.90;;;5.50;99.90;;;;;;5014958;28;20044;-79
2022/11/22 07:37:37;;;;;;;15.50;2.10;;;5.60;99.90;;;;;;4998675;28;20128;-79
2022/11/22 07:40:03;;;;;;;10.83;2.20;;;5.70;99.90;;;;;;4998417;28;20081;-79
2022/11/22 07:42:29;;;;;;;11.73;2.50;;;5.70;99.90;;;;;;4998192;28;20522;-79
2022/11/22 07:44:55;;;;;;;14.00;2.47;;;5.70;99.90;;;;;;4982508;28;20473;-78
2022/11/22 07:47:20;;;;;;;10.07;1.50;;;5.80;99.90;;;;;;4999042;28;20033;-79
2022/11/22 07:49:46;;;;;;;12.70;2.17;;;5.80;99.90;;;;;;4998483;28;20026;-79
2022/11/22 07:52:11;;;;;;;13.97;2.67;;;6.00;99.90;;;;;;4998845;28;20477;-79
2022/11/22 07:54:37;;;;;;;19.93;3.30;;;5.90;99.90;;;;;;5018485;28;20068;-78
2022/11/22 07:57:03;;;;;;;6.17;1.07;;;5.90;99.90;;;;;;5018605;28;20415;-80
2022/11/22 07:59:28;;;;;;;15.50;2.13;;;6.00;99.90;;;;;;5018446;28;20473;-79
2022/11/22 08:01:54;;;;;;;16.20;2.80;;;6.00;99.90;;;;;;5002114;28;20029;-78
2022/11/22 08:04:19;;;;;;;11.10;2.60;;;6.00;99.90;;;;;;5001778;28;20022;-79
2022/11/22 08:06:45;;;;;;;18.80;2.40;;;6.10;99.90;;;;;;5002110;28;20040;-79
2022/11/22 08:09:11;;;;;;;11.50;2.03;;;6.10;99.90;;;;;;5001986;28;20490;-79
2022/11/22 08:11:36;;;;;;;15.40;2.30;;;6.10;99.90;;;;;;5018383;28;20127;-79
2022/11/22 08:14:02;;;;;;;9.03;1.63;;;6.20;99.90;;;;;;5017992;28;20029;-79
2022/11/22 08:16:28;;;;;;;10.90;2.00;;;6.20;99.90;;;;;;5017729;28;20055;-80
2022/11/22 08:18:54;;;;;;;15.27;2.20;;;6.20;99.90;;;;;;5035419;28;20121;-79
2022/11/22 08:21:20;;;;;;;17.07;3.23;;;6.20;99.90;;;;;;5018137;28;20116;-79
2022/11/22 08:23:46;;;;;;;9.43;1.97;;;6.30;99.90;;;;;;5001957;28;20397;-79
2022/11/22 08:26:15;;;;;;;15.53;2.30;;;6.30;99.90;;;;;;5035914;28;20034;-80
2022/11/22 08:28:43;;;;;;;12.50;2.33;;;6.30;99.90;;;;;;5017920;28;20086;-79
2022/11/22 08:31:12;;;;;;;10.13;1.50;;;6.40;99.90;;;;;;5001890;28;20056;-79
2022/11/22 08:33:38;;;;;;;13.50;2.00;;;6.30;99.90;;;;;;5017945;28;20029;-79
2022/11/22 08:36:05;;;;;;;9.83;1.70;;;6.40;99.90;;;;;;5017510;28;20041;-79
2022/11/22 08:38:31;;;;;;;14.53;3.03;;;6.40;99.90;;;;;;5017923;28;20072;-80
2022/11/22 08:40:57;;;;;;;8.23;1.83;;;6.50;99.90;;;;;;5001113;28;20429;-80
2022/11/22 08:43:23;;;;;;;8.93;1.50;;;6.50;99.90;;;;;;5017954;28;20099;-79
2022/11/22 08:45:53;;;;;;;11.53;1.87;;;6.50;99.90;;;;;;5001179;28;20029;-80
2022/11/22 08:48:19;;;;;;;15.60;2.73;;;6.60;99.90;;;;;;5017543;28;20220;-79
2022/11/22 08:50:56;;;;;;;12.27;2.27;;;6.60;99.90;;;;;;5017614;28;21265;-80
2022/11/22 08:53:23;;;;;;;14.27;1.63;;;6.60;99.90;;;;;;5035227;28;20036;-79
2022/11/22 08:55:49;;;;;;;9.97;2.00;;;6.70;99.90;;;;;;5017216;28;20064;-79
2022/11/22 08:58:14;;;;;;;9.73;1.80;;;6.80;99.90;;;;;;5035091;28;20462;-80
2022/11/22 09:00:40;;;;;;;9.80;1.73;;;6.80;99.90;;;;;;5001068;28;20152;-80
2022/11/22 09:03:06;;;;;;;11.70;1.87;;;6.80;99.90;;;;;;5017345;28;20022;-79
2022/11/22 09:05:31;;;;;;;9.17;1.73;;;6.90;99.70;;;;;;5033972;28;20040;-79
2022/11/22 09:07:57;;;;;;;13.13;1.90;;;6.90;99.60;;;;;;5017233;28;20030;-80
2022/11/22 09:10:23;;;;;;;9.20;1.87;;;6.90;99.50;;;;;;5000753;28;20026;-80
2022/11/22 09:12:49;;;;;;;12.80;1.90;;;7.00;99.50;;;;;;5000860;28;20105;-80
2022/11/22 09:15:14;;;;;;;5.90;1.23;;;7.00;99.30;;;;;;5034872;28;20061;-80
2022/11/22 09:17:41;;;;;;;13.20;1.80;;;7.00;99.00;;;;;;5000703;28;20033;-80
2022/11/22 09:20:07;;;;;;;8.37;1.67;;;7.10;98.90;;;;;;5016642;28;20053;-79
2022/11/22 09:22:33;;;;;;;8.53;1.63;;;7.10;98.80;;;;;;5000468;28;20026;-79
2022/11/22 09:24:59;;;;;;;13.73;1.83;;;7.10;99.10;;;;;;5016969;28;20030;-80
2022/11/22 09:27:25;;;;;;;8.27;1.40;;;7.20;98.70;;;;;;4983955;28;20033;-80
2022/11/22 09:29:51;;;;;;;11.67;1.70;;;7.20;98.60;;;;;;5000600;28;20030;-80
2022/11/22 09:32:16;;;;;;;10.00;1.30;;;7.20;98.50;;;;;;5000238;28;20037;-80
2022/11/22 09:34:42;;;;;;;15.30;1.53;;;7.20;98.30;;;;;;5017000;28;20526;-79
2022/11/22 09:37:08;;;;;;;7.57;1.60;;;7.30;98.10;;;;;;5034524;28;20026;-79
2022/11/22 09:39:33;;;;;;;11.80;2.13;;;7.30;98.10;;;;;;5000304;28;20026;-80
2022/11/22 09:42:11;;;;;;;13.47;1.40;;;7.30;97.70;;;;;;5034298;28;20036;-80
2022/11/22 09:44:58;;;;;;;14.20;2.03;;;7.30;97.50;;;;;;5016456;28;20469;-80
2022/11/22 09:47:59;;;;;;;11.37;1.60;;;7.30;97.40;;;;;;5016984;28;20095;-80
2022/11/22 09:50:50;;;;;;;9.10;2.03;;;7.30;97.30;;;;;;5016179;28;20021;-79
2022/11/22 09:53:23;;;;;;;10.10;1.50;;;7.30;97.50;;;;;;5033750;28;20052;-78
2022/11/22 09:55:59;;;;;;;7.57;1.63;;;7.40;97.30;;;;;;5034272;28;20061;-81
2022/11/22 09:58:24;;;;;;;8.10;1.80;;;7.50;97.30;;;;;;5016428;28;20280;-80
2022/11/22 10:00:53;;;;;;;9.57;1.60;;;7.60;97.40;;;;;;5016404;28;20083;-80
2022/11/22 10:03:24;;;;;;;11.40;1.80;;;7.60;97.00;;;;;;5015954;28;20026;-80
2022/11/22 10:05:55;;;;;;;9.47;2.63;;;7.60;97.00;;;;;;5015927;28;20025;-78
2022/11/22 10:08:39;;;;;;;6.67;1.50;;;7.80;96.70;;;;;;5015994;28;20523;-79
2022/11/22 10:11:12;;;;;;;;;;;7.80;96.60;;;;;;5016513;28;20029;-80
2022/11/22 10:13:50;;;;;;;9.83;1.20;;;7.80;96.20;;;;;;5015906;28;19909;-80
2022/11/22 10:16:25;;;;;;;10.23;2.30;;;7.80;96.20;;;;;;5033260;28;20055;-80
2022/11/22 10:19:13;;;;;;;10.07;1.77;;;7.80;96.10;;;;;;5016561;28;20090;-79
2022/11/22 10:21:39;;;;;;;12.23;1.90;;;7.90;96.00;;;;;;5016864;28;20033;-79
2022/11/22 10:24:05;;;;;;;8.57;2.27;;;7.90;95.70;;;;;;5015883;28;20029;-80
2022/11/22 10:26:33;;;;;;;7.37;1.70;;;7.90;95.80;;;;;;5033473;28;20030;-79
2022/11/22 10:29:13;;;;;;;8.67;1.40;;;7.90;95.70;;;;;;5033411;28;20609;-79
2022/11/22 10:31:42;;;;;;;7.13;1.33;;;8.00;95.70;;;;;;5033775;28;20055;-79
2022/11/22 10:34:22;;;;;;;9.50;1.40;;;8.10;95.80;;;;;;5015676;28;20025;-79
2022/11/22 10:36:52;;;;;;;8.37;1.70;;;8.10;95.90;;;;;;5033080;28;20037;-79
2022/11/22 10:39:39;;;;;;;6.57;1.03;;;8.20;95.90;;;;;;5033277;28;20025;-79
2022/11/22 10:42:13;;;;;;;7.23;1.40;;;8.30;95.70;;;;;;5015390;28;20036;-79
2022/11/22 10:44:48;;;;;;;6.28;1.20;;;8.30;95.40;;;;;;5015604;28;20026;-80
2022/11/22 10:47:27;;;;;;;13.03;1.40;;;8.40;94.80;;;;;;5015259;28;20021;-79
2022/11/22 10:50:18;;;;;;;5.30;0.97;;;8.40;94.50;;;;;;5015376;28;20366;-79
2022/11/22 10:52:58;;;;;;;5.33;1.00;;;8.40;94.50;;;;;;5015383;28;20025;-79
2022/11/22 10:55:45;;;;;;;7.83;1.10;;;8.30;94.30;;;;;;5015289;28;20052;-79
2022/11/22 10:58:30;;;;;;;3.87;0.90;;;8.30;94.30;;;;;;5015563;28;20030;-79
2022/11/22 11:01:05;;;;;;;5.97;1.20;;;8.30;94.10;;;;;;5015293;28;20120;-79
2022/11/22 11:03:34;;;;;;;3.73;1.10;;;8.30;94.20;;;;;;5015338;28;20028;-79
2022/11/22 11:06:16;;;;;;;4.90;0.90;;;8.30;94.10;;;;;;5015298;28;20025;-79
2022/11/22 11:09:12;;;;;;;8.40;1.70;;;8.30;94.20;;;;;;5015410;28;20032;-79
2022/11/22 11:11:40;;;;;;;7.53;1.53;;;8.30;93.90;;;;;;5002599;28;20037;-79
2022/11/22 11:14:19;;;;;;;8.47;1.30;;;8.30;93.80;;;;;;5014964;28;20030;-79
2022/11/22 11:16:45;;;;;;;5.93;0.80;;;8.30;93.70;;;;;;5015379;28;20049;-79
2022/11/22 11:19:20;;;;;;;3.57;0.70;;;8.30;93.70;;;;;;4982580;28;20046;-79
2022/11/22 11:22:21;;;;;;;6.77;1.13;;;8.30;93.70;;;;;;5015202;28;20041;-79
2022/11/22 11:24:47;;;;;;;3.33;1.03;;;8.30;93.80;;;;;;4994239;28;20037;-79
2022/11/22 11:27:16;;;;;;;7.53;1.37;;;8.30;93.80;;;;;;5014692;28;20104;-79
2022/11/22 11:29:42;;;;;;;7.87;1.07;;;8.30;93.90;;;;;;5019137;28;20025;-79
2022/11/22 11:32:10;;;;;;;4.70;0.93;;;8.30;93.90;;;;;;5036584;28;20105;-79
2022/11/22 11:34:39;;;;;;;4.73;0.97;;;8.30;93.90;;;;;;5018853;28;20056;-79
2022/11/22 11:37:09;;;;;;;6.47;0.90;;;8.30;93.90;;;;;;5018764;28;20025;-79
2022/11/22 11:39:35;;;;;;;2.70;0.70;;;8.40;94.00;;;;;;5036419;28;20385;-79
2022/11/22 11:42:27;;;;;;;6.40;0.83;;;8.40;93.90;;;;;;5019563;28;20030;-79
2022/11/22 11:44:53;;;;;;;6.70;0.90;;;8.40;93.90;;;;;;5018636;28;20018;-79
2022/11/22 11:47:31;;;;;;;4.17;0.83;;;8.40;93.70;;;;;;5017051;28;20017;-80
2022/11/22 11:49:57;;;;;;;5.83;1.57;;;8.40;94.00;;;;;;4998446;28;20474;-80
2022/11/22 11:52:24;;;;;;;4.70;0.80;;;8.50;93.70;;;;;;4998821;28;20084;-80
2022/11/22 11:54:55;;;;;;;7.57;0.70;;;8.60;93.70;;;;;;4998575;28;20102;-80
2022/11/22 11:57:26;;;;;;;3.63;0.70;;;8.80;93.60;;;;;;4998730;28;20528;-80
2022/11/22 11:59:54;;;;;;;4.80;0.90;;;8.80;93.50;;;;;;4998883;28;20026;-80
2022/11/22 12:02:37;;;;;;;5.20;0.83;;;8.90;93.50;;;;;;5008263;28;20084;-80
2022/11/22 12:05:12;;;;;;;1.80;0.50;;;9.00;93.20;;;;;;4999143;28;20022;-80
2022/11/22 12:07:42;;;;;;;4.17;0.60;;;9.00;93.10;;;;;;4998271;28;20090;-80
2022/11/22 12:10:28;;;;;;;4.03;0.60;;;9.00;93.00;;;;;;4998851;28;20092;-80
2022/11/22 12:13:04;;;;;;;2.63;0.50;;;9.20;92.70;;;;;;4998642;28;20022;-80
2022/11/22 12:15:42;;;;;;;5.80;0.80;;;9.20;92.20;;;;;;4998137;28;20112;-80
2022/11/22 12:18:20;;;;;;;4.90;0.67;;;9.20;91.90;;;;;;4998715;28;20026;-80
2022/11/22 12:21:09;;;;;;;4.87;0.57;;;9.20;91.50;;;;;;4998523;28;20026;-80
2022/11/22 12:24:10;;;;;;;2.10;0.50;;;9.10;91.40;;;;;;4998664;28;20030;-80
2022/11/22 12:26:36;;;;;;;2.13;0.43;;;9.10;91.20;;;;;;5016420;28;20026;-80
2022/11/22 12:29:02;;;;;;;2.70;0.50;;;9.00;91.10;;;;;;4998318;28;20030;-80
2022/11/22 12:31:29;;;;;;;1.20;0.30;;;9.00;91.10;;;;;;4982048;28;20033;-79
2022/11/22 12:34:24;;;;;;;2.87;0.60;;;9.00;91.10;;;;;;4997908;28;20030;-80
2022/11/22 12:36:57;;;;;;;;;;;9.00;91.00;;;;;;5016408;28;20155;-79
2022/11/22 12:39:28;;;;;;;3.33;0.40;;;8.90;90.60;;;;;;4996997;28;19906;-80
2022/11/22 12:42:05;;;;;;;0.90;0.30;;;8.90;90.50;;;;;;5015557;28;20044;-79
2022/11/22 12:44:42;;;;;;;1.83;0.50;;;8.90;90.60;;;;;;5015711;28;20026;-79
2022/11/22 12:47:16;;;;;;;1.90;0.40;;;8.90;90.60;;;;;;4997655;28;20030;-79
2022/11/22 12:49:59;;;;;;;2.88;0.50;;;8.80;90.80;;;;;;5015519;28;20022;-79
2022/11/22 12:52:46;;;;;;;4.35;0.70;;;8.80;90.80;;;;;;5014103;28;20116;-79
2022/11/22 12:55:22;;;;;;;3.60;0.73;;;8.80;90.80;;;;;;5015545;28;20052;-79
2022/11/22 12:58:10;;;;;;;2.50;0.40;;;8.80;90.90;;;;;;5015662;28;20022;-80
2022/11/22 13:00:46;;;;;;;13.80;0.50;;;8.80;91.00;;;;;;4997719;28;20037;-79
2022/11/22 13:03:20;;;;;;;2.93;0.50;;;8.80;90.90;;;;;;4997585;28;20477;-80
2022/11/22 13:05:53;;;;;;;1.33;0.40;;;8.80;90.80;;;;;;4997903;28;20029;-81
2022/11/22 13:08:32;;;;;;;2.17;0.50;;;8.80;90.90;;;;;;4997744;28;20022;-79
2022/11/22 13:11:20;;;;;;;1.10;0.40;;;8.80;90.80;;;;;;4997421;28;20458;-79
2022/11/22 13:13:49;;;;;;;0.97;0.40;;;8.80;90.70;;;;;;4997685;28;20054;-78
2022/11/22 13:16:15;;;;;;;2.90;0.47;;;8.80;90.80;;;;;;4997416;28;20053;-79